Time;durP1;ratioP1;P1;durP2;ratioP2;P2;SDS_P1;SDS_P2;PMS_P1;PMS_P2;Temp;Humidity;BMP_temperature;BMP_pressure;BME280_temperature;BME280_humidity;BME280_pressure;Samples;Min_cycle;Max_cycle;Signal;HPM_P1;HPM_P2
2022/10/21 00:02:06;;;;;;;7.95;5.65;;;;;;;9.15;56.23;95791.16;5085782;28;20288;-71
2022/10/21 00:04:32;;;;;;;8.95;5.95;;;;;;;9.29;55.91;95785.63;5080361;28;20230;-70
2022/10/21 00:06:57;;;;;;;6.20;5.70;;;;;;;9.30;56.12;95789.91;5082484;28;20238;-71
2022/10/21 00:09:23;;;;;;;6.57;5.40;;;;;;;9.25;56.23;95798.16;5085593;28;20173;-71
2022/10/21 00:11:49;;;;;;;6.25;5.65;;;;;;;9.18;56.28;95789.13;5080094;28;20248;-71
2022/10/21 00:14:14;;;;;;;6.55;5.95;;;;;;;9.19;55.96;95792.56;5084601;28;20240;-71
2022/10/21 00:16:40;;;;;;;6.50;5.75;;;;;;;9.13;56.21;95772.91;5085113;28;20215;-62
2022/10/21 00:19:05;;;;;;;6.32;5.72;;;;;;;9.15;56.25;95778.06;5083350;28;20181;-62
2022/10/21 00:21:31;;;;;;;7.05;6.40;;;;;;;9.27;55.82;95787.53;5083830;28;20184;-62
2022/10/21 00:23:56;;;;;;;6.85;6.15;;;;;;;9.01;56.60;95787.88;5080751;28;20221;-62
2022/10/21 00:26:21;;;;;;;6.40;5.80;;;;;;;8.99;56.73;95778.44;5083402;28;20244;-62
2022/10/21 00:28:47;;;;;;;7.45;6.30;;;;;;;9.06;57.36;95790.09;5082558;28;20192;-62
2022/10/21 00:31:14;;;;;;;9.95;6.90;;;;;;;9.13;56.97;95791.28;5085362;28;20177;-62
2022/10/21 00:33:39;;;;;;;7.43;6.35;;;;;;;9.10;56.98;95785.47;5080552;28;20176;-62
2022/10/21 00:36:06;;;;;;;7.10;6.50;;;;;;;9.20;56.94;95779.34;5086495;28;20228;-62
2022/10/21 00:38:33;;;;;;;7.35;6.65;;;;;;;9.27;56.60;95788.38;5083358;28;20184;-62
2022/10/21 00:40:59;;;;;;;6.63;6.03;;;;;;;9.15;56.67;95776.25;5084482;28;20196;-62
2022/10/21 00:43:26;;;;;;;7.38;6.68;;;;;;;9.07;57.54;95780.47;5082591;28;20234;-62
2022/10/21 00:46:02;;;;;;;7.35;6.65;;;;;;;8.89;57.83;95770.47;5087489;28;20189;-62
2022/10/21 00:48:31;;;;;;;8.85;7.45;;;;;;;8.91;57.83;95770.38;5079494;28;20257;-62
2022/10/21 00:51:09;;;;;;;9.57;8.57;;;;;;;8.82;58.30;95770.16;5080744;28;20196;-62
2022/10/21 00:53:37;;;;;;;9.73;8.05;;;;;;;8.89;58.15;95767.84;5087514;28;20191;-62
2022/10/21 00:56:08;;;;;;;8.77;7.97;;;;;;;8.72;58.67;95763.13;5089608;28;20194;-62
2022/10/21 00:58:34;;;;;;;9.82;8.82;;;;;;;8.76;58.85;95756.69;5089447;28;20184;-62
2022/10/21 01:01:03;;;;;;;9.85;8.20;;;;;;;8.80;59.09;95766.81;5085371;28;20304;-63
2022/10/21 01:03:30;;;;;;;8.55;7.75;;;;;;;8.71;59.28;95764.91;5087578;28;20237;-62
2022/10/21 01:05:59;;;;;;;8.90;7.97;;;;;;;8.78;59.09;95765.25;5087035;28;20184;-62
2022/10/21 01:08:25;;;;;;;8.43;7.55;;;;;;;8.86;58.71;95757.59;5078391;28;20206;-62
2022/10/21 01:10:51;;;;;;;7.55;6.85;;;;;;;9.03;58.74;95771.97;5087905;28;20180;-62
2022/10/21 01:13:35;;;;;;;9.13;7.18;;;;;;;9.07;58.12;95754.22;5080584;28;20224;-62
2022/10/21 01:16:20;;;;;;;7.93;7.13;;;;;;;9.18;58.23;95757.63;5082332;28;20282;-62
2022/10/21 01:18:50;;;;;;;9.18;7.25;;;;;;;9.11;58.34;95756.44;5084799;28;20183;-65
2022/10/21 01:21:34;;;;;;;7.70;7.00;;;;;;;9.29;57.71;95756.75;5079436;28;20204;-63
2022/10/21 01:24:21;;;;;;;7.85;7.05;;;;;;;9.28;57.86;95763.78;5076310;28;20185;-62
2022/10/21 01:27:20;;;;;;;7.85;7.15;;;;;;;9.26;58.03;95770.13;5086705;28;20214;-62
2022/10/21 01:30:20;;;;;;;8.73;6.85;;;;;;;9.27;57.51;95756.03;5084234;28;20180;-62
2022/10/21 01:33:07;;;;;;;8.32;7.53;;;;;;;9.16;57.98;95764.78;5084477;28;20216;-62
2022/10/21 01:35:56;;;;;;;8.55;7.75;;;;;;;8.95;58.76;95782.25;5089260;28;20224;-62
2022/10/21 01:38:39;;;;;;;9.85;7.45;;;;;;;8.93;58.85;95779.78;5101557;28;20284;-62
2022/10/21 01:41:04;;;;;;;9.48;8.00;;;;;;;8.86;58.25;95772.53;5084580;28;20185;-63
2022/10/21 01:43:44;;;;;;;9.40;7.90;;;;;;;8.94;57.59;95776.19;5084449;28;20233;-62
2022/10/21 01:46:34;;;;;;;11.45;8.77;;;;;;;8.96;57.53;95783.94;5080662;28;20192;-62
2022/10/21 01:49:06;;;;;;;9.95;7.32;;;;;;;8.68;58.01;95774.81;5085785;28;20199;-63
2022/10/21 01:51:33;;;;;;;8.77;8.05;;;;;;;8.57;58.50;95789.59;5082501;28;20209;-62
2022/10/21 01:54:10;;;;;;;9.00;8.10;;;;;;;8.54;59.10;95789.84;5079386;28;20181;-62
2022/10/21 01:56:38;;;;;;;9.15;8.30;;;;;;;8.52;59.13;95783.88;5087988;28;20176;-63
2022/10/21 01:59:05;;;;;;;9.80;8.68;;;;;;;8.56;58.93;95787.09;5081169;28;20180;-62
2022/10/21 02:01:35;;;;;;;9.90;8.17;;;;;;;8.48;58.93;95784.25;5079632;28;20188;-62
2022/10/21 02:04:03;;;;;;;9.13;8.23;;;;;;;8.51;58.88;95779.59;5085004;28;20196;-62
2022/10/21 02:06:29;;;;;;;9.65;7.88;;;;;;;8.03;60.61;95792.06;5080494;28;20223;-62
2022/10/21 02:08:54;;;;;;;10.75;8.40;;;;;;;8.01;60.58;95784.31;5075749;28;20218;-62
2022/10/21 02:11:20;;;;;;;12.47;9.20;;;;;;;8.35;59.39;95787.78;5082331;28;20192;-62
2022/10/21 02:13:57;;;;;;;11.27;9.25;;;;;;;8.35;59.41;95773.84;5082668;28;20180;-62
2022/10/21 02:16:27;;;;;;;12.50;10.43;;;;;;;8.22;60.12;95789.69;5086255;28;20195;-62
2022/10/21 02:18:54;;;;;;;10.47;9.47;;;;;;;8.22;60.31;95788.84;5085725;28;20261;-62
2022/10/21 02:21:24;;;;;;;11.33;10.20;;;;;;;8.10;60.76;95785.38;5086358;28;20181;-62
2022/10/21 02:23:56;;;;;;;11.67;10.03;;;;;;;8.23;60.66;95787.91;5076024;28;20188;-62
2022/10/21 02:26:24;;;;;;;11.45;10.35;;;;;;;8.12;60.68;95788.72;5079533;28;20220;-62
2022/10/21 02:28:51;;;;;;;11.50;9.52;;;;;;;8.19;60.15;95789.94;5081475;28;20180;-62
2022/10/21 02:31:49;;;;;;;13.40;9.77;;;;;;;8.02;60.88;95791.22;5085814;28;20200;-62
2022/10/21 02:34:26;;;;;;;9.73;8.73;;;;;;;7.70;62.11;95786.66;5077207;28;20215;-62
2022/10/21 02:37:04;;;;;;;10.63;9.57;;;;;;;7.70;62.16;95794.50;5084072;28;20200;-63
2022/10/21 02:39:47;;;;;;;11.27;10.20;;;;;;;7.56;62.48;95794.66;5081625;28;20189;-62
2022/10/21 02:42:18;;;;;;;10.98;9.90;;;;;;;7.69;62.02;95797.22;5083090;28;20233;-62
2022/10/21 02:44:44;;;;;;;10.70;9.63;;;;;;;7.69;61.97;95797.22;5082251;28;20192;-62
2022/10/21 02:47:10;;;;;;;12.32;11.02;;;;;;;7.53;62.79;95799.31;5079477;28;20333;-63
2022/10/21 02:49:35;;;;;;;11.48;10.38;;;;;;;7.48;63.24;95790.03;5087161;28;20204;-62
2022/10/21 02:52:01;;;;;;;11.50;10.43;;;;;;;7.66;62.33;95794.84;5084169;28;20195;-62
2022/10/21 02:54:26;;;;;;;12.13;10.90;;;;;;;7.65;62.51;95803.66;5088028;28;20210;-62
2022/10/21 02:56:51;;;;;;;14.90;10.63;;;;;;;7.45;62.90;95805.09;5080476;28;20184;-62
2022/10/21 02:59:17;;;;;;;12.73;11.43;;;;;;;7.49;63.12;95803.94;5086208;28;20193;-62
2022/10/21 03:01:42;;;;;;;15.82;12.30;;;;;;;7.59;62.74;95804.09;5081558;28;20188;-62
2022/10/21 03:04:08;;;;;;;12.57;11.38;;;;;;;7.61;62.68;95805.63;5080595;28;20192;-62
2022/10/21 03:06:33;;;;;;;14.37;11.70;;;;;;;7.69;62.49;95808.50;5084554;28;20184;-62
2022/10/21 03:08:59;;;;;;;14.87;12.93;;;;;;;7.64;62.19;95809.81;5085056;28;20188;-62
2022/10/21 03:11:24;;;;;;;13.63;12.30;;;;;;;7.60;62.47;95806.59;5080748;28;20201;-62
2022/10/21 03:13:50;;;;;;;13.60;11.80;;;;;;;7.31;63.17;95805.31;5088674;28;20181;-62
2022/10/21 03:16:15;;;;;;;14.13;12.70;;;;;;;7.21;63.83;95818.22;5086426;28;20185;-62
2022/10/21 03:18:41;;;;;;;13.37;12.07;;;;;;;7.15;63.96;95802.97;5081416;28;20197;-62
2022/10/21 03:21:06;;;;;;;13.50;12.10;;;;;;;6.97;64.61;95805.13;5084082;28;20173;-62
2022/10/21 03:23:32;;;;;;;14.20;12.70;;;;;;;7.29;64.01;95813.25;5080030;28;20209;-62
2022/10/21 03:25:57;;;;;;;13.27;11.90;;;;;;;7.10;64.02;95803.28;5088247;28;20188;-62
2022/10/21 03:28:23;;;;;;;13.67;12.37;;;;;;;7.09;63.98;95809.47;5089822;28;20190;-62
2022/10/21 03:30:48;;;;;;;13.65;12.32;;;;;;;7.22;64.01;95805.03;5086815;28;20192;-63
2022/10/21 03:33:14;;;;;;;13.83;12.53;;;;;;;7.39;63.21;95808.19;5082860;28;20185;-62
2022/10/21 03:35:39;;;;;;;14.20;12.80;;;;;;;7.20;63.43;95816.56;5079852;28;20239;-63
2022/10/21 03:38:05;;;;;;;13.03;11.60;;;;;;;7.10;64.16;95818.97;5085738;28;20195;-62
2022/10/21 03:40:30;;;;;;;15.93;13.33;;;;;;;7.20;63.44;95813.94;5084796;28;20180;-63
2022/10/21 03:42:57;;;;;;;16.00;12.97;;;;;;;7.18;63.48;95821.88;5081561;28;20195;-63
2022/10/21 03:45:22;;;;;;;14.13;11.87;;;;;;;7.14;63.45;95822.22;5078730;28;20192;-62
2022/10/21 03:47:47;;;;;;;13.23;11.93;;;;;;;7.23;63.39;95816.31;5091080;28;20199;-62
2022/10/21 03:50:13;;;;;;;13.93;12.53;;;;;;;7.34;62.90;95813.75;5083763;28;20203;-62
2022/10/21 03:52:38;;;;;;;15.93;12.93;;;;;;;7.15;63.28;95823.88;5087135;28;20184;-62
2022/10/21 03:55:04;;;;;;;15.50;12.47;;;;;;;6.97;63.92;95823.41;5082743;28;20226;-63
2022/10/21 03:57:30;;;;;;;14.73;12.10;;;;;;;7.10;63.70;95831.22;5086202;28;20236;-63
2022/10/21 03:59:55;;;;;;;14.77;13.27;;;;;;;6.86;64.48;95824.19;5088205;28;20215;-62
2022/10/21 04:02:21;;;;;;;13.47;12.17;;;;;;;6.90;64.45;95822.22;5085504;28;20195;-62
2022/10/21 04:04:46;;;;;;;16.20;13.40;;;;;;;6.98;64.03;95828.56;5079866;28;20187;-63
2022/10/21 04:07:11;;;;;;;15.17;13.67;;;;;;;6.81;64.47;95832.34;5087918;28;20287;-62
2022/10/21 04:09:37;;;;;;;16.00;12.80;;;;;;;6.88;64.37;95834.56;5088101;28;20209;-62
2022/10/21 04:12:03;;;;;;;14.97;13.37;;;;;;;6.93;64.28;95825.44;5083714;28;20188;-62
2022/10/21 04:14:28;;;;;;;15.30;13.17;;;;;;;7.03;63.38;95828.19;5086848;28;20249;-62
2022/10/21 04:16:53;;;;;;;16.30;12.47;;;;;;;6.64;64.86;95822.28;5084737;28;20256;-62
2022/10/21 04:19:19;;;;;;;14.70;12.67;;;;;;;6.68;64.82;95830.72;5090258;28;20184;-62
2022/10/21 04:21:46;;;;;;;15.67;12.47;;;;;;;6.71;65.19;95836.59;5083898;28;20193;-62
2022/10/21 04:24:12;;;;;;;13.90;12.50;;;;;;;6.86;64.42;95824.19;5081612;28;20189;-61
2022/10/21 04:26:37;;;;;;;15.60;13.20;;;;;;;6.75;64.62;95824.94;5086557;28;20184;-62
2022/10/21 04:29:03;;;;;;;14.63;13.13;;;;;;;6.71;64.57;95810.44;5087041;28;20188;-61
2022/10/21 04:31:28;;;;;;;15.47;13.10;;;;;;;6.64;64.64;95811.81;5080188;28;20201;-62
2022/10/21 04:33:54;;;;;;;15.53;12.13;;;;;;;6.71;65.01;95820.03;5086321;28;20250;-62
2022/10/21 04:36:19;;;;;;;15.10;13.60;;;;;;;6.70;64.84;95826.22;5087069;28;20267;-62
2022/10/21 04:38:45;;;;;;;20.80;13.50;;;;;;;6.74;64.70;95822.47;5080080;28;20191;-61
2022/10/21 04:41:10;;;;;;;21.60;14.37;;;;;;;6.74;64.47;95828.53;5083398;28;20188;-63
2022/10/21 04:43:36;;;;;;;18.73;14.53;;;;;;;6.86;64.27;95816.34;5088515;28;20253;-63
2022/10/21 04:46:02;;;;;;;18.40;15.07;;;;;;;6.87;63.72;95812.81;5079448;28;20339;-63
2022/10/21 04:48:28;;;;;;;21.30;15.57;;;;;;;6.92;63.95;95815.91;5084341;28;20185;-62
2022/10/21 04:50:53;;;;;;;17.17;13.60;;;;;;;6.88;63.76;95817.09;5089940;28;20223;-62
2022/10/21 04:53:19;;;;;;;16.83;14.10;;;;;;;6.82;64.41;95828.81;5080191;28;20189;-62
2022/10/21 04:55:50;;;;;;;14.57;13.03;;;;;;;6.72;64.86;95832.19;5087831;28;20188;-62
2022/10/21 04:58:15;;;;;;;17.93;13.73;;;;;;;6.77;64.23;95819.63;5081262;28;20209;-62
2022/10/21 05:00:40;;;;;;;16.97;14.43;;;;;;;6.66;64.46;95822.16;5084816;28;20554;-62
2022/10/21 05:03:06;;;;;;;18.73;14.20;;;;;;;6.78;63.88;95816.88;5079297;28;20184;-62
2022/10/21 05:05:31;;;;;;;15.97;14.37;;;;;;;6.92;63.65;95821.13;5082781;28;20283;-61
2022/10/21 05:07:57;;;;;;;15.70;13.73;;;;;;;6.79;64.17;95829.03;5084077;28;20237;-62
2022/10/21 05:10:23;;;;;;;22.20;15.07;;;;;;;6.84;64.38;95823.47;5083764;28;20219;-61
2022/10/21 05:12:48;;;;;;;17.37;13.30;;;;;;;6.82;64.64;95830.59;5086722;28;20305;-64
2022/10/21 05:15:14;;;;;;;21.30;14.57;;;;;;;6.80;64.75;95824.63;5081902;28;20192;-62
2022/10/21 05:17:39;;;;;;;17.93;15.17;;;;;;;6.90;63.96;95836.13;5081297;28;20195;-61
2022/10/21 05:20:05;;;;;;;15.33;13.40;;;;;;;6.88;64.49;95838.00;5085611;28;20187;-62
2022/10/21 05:22:31;;;;;;;18.30;14.80;;;;;;;6.70;64.34;95821.81;5079569;28;20216;-62
2022/10/21 05:24:57;;;;;;;17.57;14.20;;;;;;;6.89;63.67;95828.38;5077254;28;20265;-62
2022/10/21 05:27:22;;;;;;;16.80;15.00;;;;;;;7.09;62.99;95834.81;5082394;28;20342;-63
2022/10/21 05:29:47;;;;;;;16.03;14.50;;;;;;;6.94;63.94;95842.78;5086416;28;20208;-62
2022/10/21 05:32:13;;;;;;;18.50;14.80;;;;;;;6.79;64.07;95825.56;5078184;28;20221;-62
2022/10/21 05:34:38;;;;;;;16.90;14.40;;;;;;;6.98;63.97;95836.41;5083892;28;20989;-63
2022/10/21 05:37:04;;;;;;;18.13;14.40;;;;;;;7.07;63.44;95835.72;5087284;28;20210;-63
2022/10/21 05:39:29;;;;;;;20.87;14.70;;;;;;;6.83;64.53;95840.09;5068469;28;20183;-63
2022/10/21 05:41:55;;;;;;;21.70;15.23;;;;;;;7.00;63.87;95837.13;5078871;28;20199;-63
2022/10/21 05:44:20;;;;;;;21.27;14.80;;;;;;;7.17;63.41;95849.00;5081857;28;20184;-63
2022/10/21 05:46:46;;;;;;;20.90;15.43;;;;;;;7.21;63.10;95850.41;5079543;28;20215;-63
2022/10/21 05:49:12;;;;;;;20.83;15.37;;;;;;;7.29;63.03;95842.84;5081135;28;20199;-63
2022/10/21 05:51:37;;;;;;;18.27;15.30;;;;;;;7.46;63.06;95841.66;5080790;28;20204;-63
2022/10/21 05:54:04;;;;;;;18.57;15.17;;;;;;;7.43;63.30;95860.19;5082818;28;20189;-63
2022/10/21 05:56:30;;;;;;;17.35;15.27;;;;;;;7.27;63.69;95851.75;5079948;28;20254;-63
2022/10/21 05:58:55;;;;;;;18.93;15.33;;;;;;;7.22;64.63;95859.13;5081239;28;20179;-63
2022/10/21 06:01:21;;;;;;;21.38;15.85;;;;;;;7.21;64.74;95866.13;5083284;28;20256;-63
2022/10/21 06:03:46;;;;;;;19.65;15.57;;;;;;;7.33;63.94;95855.75;5084610;28;20192;-63
2022/10/21 06:06:14;;;;;;;23.08;17.65;;;;;;;7.28;64.43;95869.13;5081586;28;20200;-63
2022/10/21 06:08:39;;;;;;;19.58;16.98;;;;;;;7.52;63.51;95869.13;5086432;28;20213;-63
2022/10/21 06:11:16;;;;;;;24.13;16.80;;;;;;;7.69;63.43;95871.34;5081332;28;20204;-63
2022/10/21 06:13:42;;;;;;;19.23;15.10;;;;;;;7.73;63.57;95870.19;5082893;28;20188;-63
2022/10/21 06:16:09;;;;;;;22.40;15.60;;;;;;;7.82;63.65;95878.31;5085124;28;20181;-63
2022/10/21 06:18:34;;;;;;;20.43;16.33;;;;;;;7.99;63.11;95877.03;5079810;28;20279;-63
2022/10/21 06:21:00;;;;;;;21.30;18.73;;;;;;;8.10;62.97;95885.78;5081218;28;20297;-63
2022/10/21 06:23:26;;;;;;;19.30;15.38;;;;;;;8.27;63.09;95888.91;5085922;28;20227;-62
2022/10/21 06:26:09;;;;;;;17.15;15.35;;;;;;;8.14;63.76;95891.59;5082810;28;20262;-63
2022/10/21 06:28:37;;;;;;;19.50;14.55;;;;;;;8.07;64.83;95880.78;5077075;28;20188;-63
2022/10/21 06:31:04;;;;;;;18.43;15.23;;;;;;;8.25;64.07;95893.41;5084039;28;20311;-63
2022/10/21 06:33:30;;;;;;;16.60;14.68;;;;;;;8.23;64.49;95890.91;5099404;28;20180;-63
2022/10/21 06:35:55;;;;;;;16.00;13.43;;;;;;;8.34;64.62;95901.44;5083200;28;20232;-64
2022/10/21 06:38:22;;;;;;;15.33;12.60;;;;;;;8.52;63.88;95895.75;5082969;28;20203;-64
2022/10/21 06:40:47;;;;;;;18.20;12.67;;;;;;;8.55;63.95;95890.28;5088762;28;20224;-64
2022/10/21 06:43:13;;;;;;;16.70;12.37;;;;;;;8.77;63.47;95892.94;5085282;28;20241;-64
2022/10/21 06:45:39;;;;;;;16.93;12.20;;;;;;;8.77;63.21;95895.53;5084543;28;20199;-63
2022/10/21 06:48:04;;;;;;;15.60;12.50;;;;;;;8.79;63.24;95888.41;5084755;28;20188;-64
2022/10/21 06:50:30;;;;;;;17.27;12.52;;;;;;;8.93;63.12;95896.97;5083098;28;20220;-64
2022/10/21 06:52:55;;;;;;;15.07;11.63;;;;;;;9.09;63.15;95899.22;5084386;28;20188;-64
2022/10/21 06:55:21;;;;;;;12.48;11.10;;;;;;;9.17;62.64;95889.78;5079284;28;20224;-64
2022/10/21 06:57:46;;;;;;;15.13;11.13;;;;;;;9.25;62.61;95899.69;5093020;28;20188;-64
2022/10/21 07:00:13;;;;;;;15.00;10.75;;;;;;;9.16;62.96;95897.78;5084292;28;20184;-64
2022/10/21 07:02:38;;;;;;;12.80;10.63;;;;;;;9.32;62.69;95906.09;5084885;28;20212;-64
2022/10/21 07:05:04;;;;;;;12.93;10.50;;;;;;;9.48;62.33;95903.91;5084315;28;20195;-64
2022/10/21 07:07:30;;;;;;;11.93;10.52;;;;;;;9.56;61.98;95890.16;5081237;28;20234;-64
2022/10/21 07:09:56;;;;;;;14.20;10.82;;;;;;;9.55;62.08;95906.06;5082925;28;20201;-62
2022/10/21 07:12:26;;;;;;;13.98;10.45;;;;;;;9.71;61.47;95901.25;5084635;28;20189;-64
2022/10/21 07:14:53;;;;;;;12.57;11.25;;;;;;;9.72;61.55;95900.25;5084685;28;20184;-64
2022/10/21 07:17:19;;;;;;;13.40;11.03;;;;;;;9.83;61.20;95894.97;5087720;28;20188;-64
2022/10/21 07:19:44;;;;;;;13.67;11.27;;;;;;;9.66;61.49;95896.34;5087726;28;20188;-64
2022/10/21 07:22:10;;;;;;;12.93;11.15;;;;;;;9.82;61.38;95897.72;5084033;28;20216;-64
2022/10/21 07:24:35;;;;;;;15.95;12.65;;;;;;;9.84;61.33;95896.66;5089027;28;20213;-64
2022/10/21 07:27:01;;;;;;;19.90;14.75;;;;;;;10.00;60.98;95901.47;5086992;28;20218;-64
2022/10/21 07:29:27;;;;;;;20.00;13.23;;;;;;;10.15;60.58;95910.69;5086947;28;20217;-63
2022/10/21 07:31:52;;;;;;;18.58;12.98;;;;;;;10.18;60.20;95900.91;5090204;28;20225;-64
2022/10/21 07:34:18;;;;;;;17.42;12.82;;;;;;;10.32;59.98;95911.16;5089269;28;20188;-64
2022/10/21 07:36:51;;;;;;;15.23;12.57;;;;;;;10.37;60.11;95908.94;5083554;28;20228;-64
2022/10/21 07:39:19;;;;;;;14.93;12.38;;;;;;;10.36;59.88;95892.34;5086083;28;20181;-63
2022/10/21 07:41:48;;;;;;;18.08;12.80;;;;;;;10.51;59.62;95898.13;5084004;28;20185;-64
2022/10/21 07:44:14;;;;;;;16.52;12.13;;;;;;;10.62;59.46;95897.22;5083857;28;20241;-62
2022/10/21 07:46:41;;;;;;;13.90;11.75;;;;;;;10.65;58.90;95894.31;5068781;28;20189;-62
2022/10/21 07:49:08;;;;;;;15.40;12.27;;;;;;;10.69;58.92;95892.25;5084803;28;20213;-62
2022/10/21 07:51:33;;;;;;;13.35;11.98;;;;;;;10.65;59.12;95890.84;5085874;28;20208;-62
2022/10/21 07:54:00;;;;;;;15.02;13.02;;;;;;;10.77;58.90;95897.69;5086625;28;20180;-62
2022/10/21 07:56:31;;;;;;;13.32;11.93;;;;;;;10.81;58.69;95885.94;5081749;28;20185;-62
2022/10/21 07:58:57;;;;;;;18.13;13.20;;;;;;;10.82;58.54;95877.94;5099136;28;20180;-63
2022/10/21 08:01:23;;;;;;;15.50;13.07;;;;;;;10.84;58.57;95890.94;5087792;28;20271;-63
2022/10/21 08:03:51;;;;;;;16.05;12.82;;;;;;;10.32;59.96;95892.75;5089401;28;20192;-63
2022/10/21 08:06:17;;;;;;;16.52;12.80;;;;;;;10.56;59.60;95879.34;5084379;28;20177;-62
2022/10/21 08:08:43;;;;;;;15.43;13.25;;;;;;;10.74;58.96;95888.25;5078685;28;20189;-62
2022/10/21 08:11:09;;;;;;;15.73;13.80;;;;;;;10.78;58.85;95875.69;5081758;28;20211;-62
2022/10/21 08:13:34;;;;;;;16.02;14.25;;;;;;;10.86;59.07;95881.13;5080038;28;20203;-63
2022/10/21 08:16:00;;;;;;;19.27;13.23;;;;;;;10.95;58.62;95875.06;5085716;28;20184;-63
2022/10/21 08:18:26;;;;;;;16.40;13.70;;;;;;;11.07;58.58;95883.69;5084324;28;20184;-63
2022/10/21 08:20:53;;;;;;;16.67;14.40;;;;;;;11.14;58.13;95866.38;5088697;28;20185;-63
2022/10/21 08:23:21;;;;;;;15.57;12.98;;;;;;;11.22;58.61;95877.06;5085932;28;20180;-63
2022/10/21 08:25:52;;;;;;;16.05;14.00;;;;;;;11.35;57.71;95871.56;5082670;28;20557;-63
2022/10/21 08:28:18;;;;;;;16.13;13.40;;;;;;;11.42;57.93;95875.34;5085528;28;20192;-64
2022/10/21 08:30:49;;;;;;;18.98;13.50;;;;;;;11.44;57.65;95865.50;5090392;28;20205;-64
2022/10/21 08:33:15;;;;;;;14.20;12.80;;;;;;;11.59;57.21;95873.81;5095493;28;20268;-64
2022/10/21 08:35:42;;;;;;;15.80;13.80;;;;;;;11.57;57.66;95872.28;5085725;28;20262;-64
2022/10/21 08:38:09;;;;;;;15.25;13.65;;;;;;;11.70;57.43;95872.84;5082499;28;20195;-64
2022/10/21 08:40:40;;;;;;;19.85;13.95;;;;;;;11.81;56.51;95864.00;5088165;28;20180;-65
2022/10/21 08:43:18;;;;;;;19.38;14.77;;;;;;;11.95;56.09;95868.03;5085392;28;20181;-64
2022/10/21 08:45:50;;;;;;;14.93;13.32;;;;;;;11.99;56.17;95866.81;5085232;28;20191;-64
2022/10/21 08:48:20;;;;;;;14.70;13.20;;;;;;;11.88;56.27;95859.88;5084366;28;20215;-64
2022/10/21 08:50:49;;;;;;;13.98;12.52;;;;;;;12.02;55.86;95856.81;5097202;28;20215;-64
2022/10/21 08:53:22;;;;;;;16.42;14.38;;;;;;;12.08;55.78;95860.69;5080646;28;20185;-64
2022/10/21 08:55:47;;;;;;;15.65;14.05;;;;;;;12.14;55.59;95860.13;5096702;28;20192;-64
2022/10/21 08:58:18;;;;;;;15.68;13.95;;;;;;;12.38;55.31;95857.03;5080068;28;20188;-64
2022/10/21 09:00:43;;;;;;;17.98;13.50;;;;;;;12.51;54.78;95851.44;5080565;28;20180;-64
2022/10/21 09:03:15;;;;;;;15.48;13.95;;;;;;;12.49;54.34;95856.88;5086055;28;20202;-65
2022/10/21 09:05:59;;;;;;;15.07;13.48;;;;;;;12.55;54.44;95844.91;5081864;28;20191;-64
2022/10/21 09:08:47;;;;;;;15.48;13.80;;;;;;;12.39;54.73;95857.88;5081232;28;20254;-64
2022/10/21 09:11:30;;;;;;;17.33;14.13;;;;;;;12.68;54.20;95848.06;5087512;28;20291;-64
2022/10/21 09:14:23;;;;;;;14.95;13.13;;;;;;;12.77;53.45;95838.44;5085761;28;20219;-64
2022/10/21 09:17:01;;;;;;;17.42;13.77;;;;;;;12.88;52.75;95840.06;5095778;28;20208;-64
2022/10/21 09:19:50;;;;;;;15.32;13.07;;;;;;;13.05;52.36;95831.38;5082558;28;20188;-65
2022/10/21 09:22:39;;;;;;;14.85;13.40;;;;;;;13.16;52.00;95835.63;5084603;28;20199;-64
2022/10/21 09:25:20;;;;;;;14.65;13.15;;;;;;;13.05;52.24;95833.19;5077105;28;20211;-63
2022/10/21 09:27:45;;;;;;;14.48;13.02;;;;;;;13.11;52.31;95822.03;5084996;28;20188;-64
2022/10/21 09:30:16;;;;;;;15.55;13.80;;;;;;;13.32;51.70;95824.44;5085216;28;20201;-63
2022/10/21 09:32:48;;;;;;;14.00;12.70;;;;;;;13.52;50.67;95825.13;5083221;28;20192;-63
2022/10/21 09:35:22;;;;;;;17.30;13.02;;;;;;;13.46;49.93;95821.28;5083168;28;20223;-63
2022/10/21 09:37:54;;;;;;;16.10;12.88;;;;;;;13.46;50.11;95805.44;5065736;28;20188;-63
2022/10/21 09:40:23;;;;;;;14.25;12.60;;;;;;;13.59;50.31;95811.19;5084853;28;20173;-63
2022/10/21 09:42:51;;;;;;;17.10;13.18;;;;;;;13.82;49.98;95810.72;5080408;28;20190;-64
2022/10/21 09:45:16;;;;;;;16.60;12.65;;;;;;;13.89;49.87;95817.06;5087085;28;20184;-64
2022/10/21 09:47:43;;;;;;;13.90;12.15;;;;;;;14.04;50.05;95804.13;5084828;28;20191;-63
2022/10/21 09:50:14;;;;;;;13.43;11.93;;;;;;;14.27;48.42;95807.09;5087630;28;20220;-63
2022/10/21 09:52:46;;;;;;;12.88;11.57;;;;;;;14.17;48.87;95807.22;5084145;28;20218;-63
2022/10/21 09:55:14;;;;;;;14.00;12.68;;;;;;;14.04;48.35;95804.97;5079753;28;20185;-63
2022/10/21 09:57:47;;;;;;;14.13;12.75;;;;;;;14.04;48.52;95812.88;5081260;28;20180;-63
2022/10/21 10:00:12;;;;;;;13.85;12.40;;;;;;;14.11;48.82;95815.72;5084864;28;20219;-63
2022/10/21 10:02:44;;;;;;;14.45;11.80;;;;;;;14.33;47.75;95815.25;5084778;28;20207;-63
2022/10/21 10:05:35;;;;;;;12.57;11.43;;;;;;;14.37;48.07;95810.47;5085605;28;20210;-63
2022/10/21 10:08:37;;;;;;;12.98;11.77;;;;;;;14.70;47.45;95815.97;5081279;28;20180;-63
2022/10/21 10:11:08;;;;;;;13.63;11.73;;;;;;;14.74;46.68;95807.56;5078963;28;20239;-63
2022/10/21 10:13:41;;;;;;;13.10;11.82;;;;;;;14.84;46.76;95799.50;5097852;28;20184;-63
2022/10/21 10:16:26;;;;;;;14.75;12.45;;;;;;;15.08;46.62;95792.66;5091981;28;20180;-63
2022/10/21 10:19:10;;;;;;;13.68;11.27;;;;;;;15.27;46.13;95792.38;5098901;28;20210;-63
2022/10/21 10:21:35;;;;;;;17.63;12.73;;;;;;;15.34;45.53;95793.41;5105115;28;20176;-63
2022/10/21 10:24:02;;;;;;;14.52;12.35;;;;;;;15.44;45.14;95783.47;5090429;28;20203;-63
2022/10/21 10:26:33;;;;;;;12.70;11.48;;;;;;;15.53;44.86;95779.03;5087174;28;20184;-63
2022/10/21 10:29:20;;;;;;;12.40;10.98;;;;;;;15.60;44.52;95776.53;5092692;28;20180;-63
2022/10/21 10:31:49;;;;;;;12.93;11.73;;;;;;;15.71;44.72;95784.19;5085705;28;20232;-63
2022/10/21 10:34:52;;;;;;;13.10;11.80;;;;;;;15.71;43.89;95784.19;5092227;28;20242;-63
2022/10/21 10:37:25;;;;;;;13.05;11.77;;;;;;;15.98;43.99;95779.56;5090723;28;20219;-63
2022/10/21 10:39:54;;;;;;;13.60;12.23;;;;;;;15.82;43.66;95786.53;5080565;28;20184;-65
2022/10/21 10:42:27;;;;;;;13.30;11.77;;;;;;;15.74;44.49;95775.06;5090348;28;20280;-63
2022/10/21 10:44:56;;;;;;;14.10;12.60;;;;;;;15.98;43.59;95767.13;5084334;28;20189;-63
2022/10/21 10:47:27;;;;;;;16.52;11.32;;;;;;;16.16;43.27;95761.63;5095724;28;20183;-64
2022/10/21 10:49:52;;;;;;;14.07;12.00;;;;;;;16.16;42.53;95751.03;5091311;28;20207;-64
2022/10/21 10:52:22;;;;;;;12.77;11.48;;;;;;;16.29;42.10;95745.19;5093317;28;20195;-64
2022/10/21 10:55:13;;;;;;;12.65;11.25;;;;;;;16.52;41.95;95734.69;5086272;28;20249;-64
2022/10/21 10:57:43;;;;;;;13.05;10.40;;;;;;;16.64;41.60;95749.25;5085102;28;20234;-64
2022/10/21 11:00:16;;;;;;;15.65;11.75;;;;;;;16.43;42.12;95733.88;5091953;28;20271;-64
2022/10/21 11:03:04;;;;;;;12.85;11.00;;;;;;;16.45;41.47;95745.16;5086664;28;20180;-64
2022/10/21 11:05:42;;;;;;;12.70;10.90;;;;;;;16.48;41.17;95726.22;5093251;28;20191;-64
2022/10/21 11:08:31;;;;;;;15.07;11.02;;;;;;;16.88;40.99;95734.25;5101482;28;20248;-64
2022/10/21 11:11:00;;;;;;;13.20;10.65;;;;;;;16.54;41.30;95730.88;5091295;28;20200;-64
2022/10/21 11:13:27;;;;;;;12.75;11.50;;;;;;;16.64;41.72;95728.00;5092435;28;20302;-64
2022/10/21 11:16:19;;;;;;;13.57;11.50;;;;;;;17.23;40.56;95724.09;5089010;28;20184;-64
2022/10/21 11:19:25;;;;;;;15.20;12.05;;;;;;;17.57;39.09;95713.88;5089178;28;20180;-64
2022/10/21 11:21:59;;;;;;;12.70;11.43;;;;;;;17.50;39.38;95712.94;5097805;28;20194;-64
2022/10/21 11:24:30;;;;;;;13.55;11.38;;;;;;;17.71;39.01;95706.13;5073780;28;20193;-64
2022/10/21 11:27:31;;;;;;;13.35;11.10;;;;;;;17.87;38.75;95703.38;5085126;28;20185;-64
2022/10/21 11:30:08;;;;;;;12.18;10.98;;;;;;;17.71;38.46;95690.19;5098655;28;20208;-64
2022/10/21 11:32:42;;;;;;;11.15;9.77;;;;;;;17.56;38.82;95684.81;5086658;28;20184;-64
2022/10/21 11:35:40;;;;;;;13.60;10.52;;;;;;;18.65;37.35;95702.03;5089001;28;20203;-64
2022/10/21 11:38:29;;;;;;;11.00;9.90;;;;;;;29.37;21.35;95689.28;5087266;28;20176;-64
2022/10/21 11:41:24;;;;;;;12.20;10.93;;;;;;;33.85;14.93;95691.91;5010636;28;20190;-64